LOT285 EPWA-EGLL
Flight info
| Callsign | LOT285 |
|---|---|
| Flight time | 2h 16m |
| Altitude | 38000 |
| Route | LOLSI DCT DIBLO DCT INDIG DCT SUBIX DCT HLZ DCT ABNED L980 LOGAN |
| Aircraft | B38M/M-SDE1FGHILORVWXY/HB1 |
Departure
| Time | 2026-05-05 15:14 |
|---|---|
| Airport | Warsaw Chopin Airport (EPWA) |
Arrival
| Time | 2026-05-05 17:30 |
|---|---|
| Airport | London Heathrow Airport (EGLL) |
| Time | Latitude | Longitude | Altitude | Speed | Heading |
|---|---|---|---|---|---|
| 2026-05-05 14:47 | 52.17449 | 20.96988 | 336 ft | 0 kts | 242° |
| 2026-05-05 15:02 | 52.17455 | 20.97007 | 337 ft | 3 kts | 242° |
| 2026-05-05 15:02 | 52.17464 | 20.97034 | 338 ft | 3 kts | 242° |
| 2026-05-05 15:03 | 52.17468 | 20.97062 | 336 ft | 3 kts | 295° |
| 2026-05-05 15:03 | 52.17459 | 20.97077 | 336 ft | 0 kts | 332° |
| 2026-05-05 15:07 | 52.17461 | 20.97076 | 337 ft | 1 kts | 332° |
| 2026-05-05 15:07 | 52.17489 | 20.97055 | 340 ft | 8 kts | 335° |
| 2026-05-05 15:08 | 52.17548 | 20.97011 | 339 ft | 10 kts | 335° |
| 2026-05-05 15:08 | 52.17614 | 20.96947 | 338 ft | 10 kts | 312° |
| 2026-05-05 15:08 | 52.17619 | 20.96870 | 339 ft | 7 kts | 246° |
| 2026-05-05 15:08 | 52.17591 | 20.96793 | 339 ft | 9 kts | 239° |
| 2026-05-05 15:09 | 52.17555 | 20.96701 | 337 ft | 11 kts | 238° |
| 2026-05-05 15:09 | 52.17513 | 20.96592 | 341 ft | 12 kts | 231° |
| 2026-05-05 15:09 | 52.17460 | 20.96477 | 340 ft | 13 kts | 242° |
| 2026-05-05 15:09 | 52.17410 | 20.96390 | 341 ft | 10 kts | 184° |
| 2026-05-05 15:10 | 52.17341 | 20.96440 | 338 ft | 12 kts | 151° |
| 2026-05-05 15:10 | 52.17263 | 20.96509 | 338 ft | 13 kts | 152° |
| 2026-05-05 15:10 | 52.17176 | 20.96584 | 336 ft | 15 kts | 152° |
| 2026-05-05 15:10 | 52.17079 | 20.96669 | 338 ft | 17 kts | 152° |
| 2026-05-05 15:11 | 52.16973 | 20.96761 | 339 ft | 18 kts | 152° |
| 2026-05-05 15:11 | 52.16863 | 20.96857 | 339 ft | 18 kts | 152° |
| 2026-05-05 15:11 | 52.16745 | 20.96960 | 337 ft | 20 kts | 152° |
| 2026-05-05 15:11 | 52.16666 | 20.97048 | 339 ft | 13 kts | 121° |
| 2026-05-05 15:12 | 52.16624 | 20.97192 | 338 ft | 15 kts | 115° |
| 2026-05-05 15:12 | 52.16579 | 20.97353 | 338 ft | 16 kts | 115° |
| 2026-05-05 15:12 | 52.16529 | 20.97531 | 338 ft | 18 kts | 115° |
| 2026-05-05 15:12 | 52.16476 | 20.97719 | 338 ft | 17 kts | 115° |
| 2026-05-05 15:13 | 52.16436 | 20.97802 | 340 ft | 8 kts | 171° |
| 2026-05-05 15:13 | 52.16376 | 20.97775 | 343 ft | 10 kts | 205° |
| 2026-05-05 15:13 | 52.16314 | 20.97723 | 339 ft | 10 kts | 222° |
| 2026-05-05 15:13 | 52.16320 | 20.97615 | 337 ft | 12 kts | 294° |
| 2026-05-05 15:14 | 52.16432 | 20.97221 | 336 ft | 77 kts | 295° |
| 2026-05-05 15:14 | 52.16762 | 20.96045 | 350 ft | 149 kts | 294° |
| 2026-05-05 15:14 | 52.17245 | 20.94296 | 681 ft | 181 kts | 291° |
| 2026-05-05 15:14 | 52.17765 | 20.92356 | 1439 ft | 196 kts | 287° |
| 2026-05-05 15:15 | 52.18308 | 20.90233 | 1825 ft | 233 kts | 288° |
| 2026-05-05 15:15 | 52.18856 | 20.87718 | 2575 ft | 242 kts | 275° |
| 2026-05-05 15:15 | 52.18678 | 20.85022 | 3497 ft | 240 kts | 248° |
| 2026-05-05 15:15 | 52.17771 | 20.82806 | 4538 ft | 237 kts | 220° |
| 2026-05-05 15:16 | 52.16856 | 20.81504 | 5140 ft | 244 kts | 227° |
| 2026-05-05 15:16 | 52.16161 | 20.79068 | 6047 ft | 246 kts | 263° |
| 2026-05-05 15:16 | 52.16364 | 20.76258 | 6920 ft | 256 kts | 280° |
| 2026-05-05 15:16 | 52.16807 | 20.73405 | 7763 ft | 260 kts | 281° |
| 2026-05-05 15:17 | 52.17259 | 20.70539 | 8688 ft | 263 kts | 281° |
| 2026-05-05 15:17 | 52.17720 | 20.67652 | 9565 ft | 266 kts | 280° |
| 2026-05-05 15:17 | 52.17924 | 20.65700 | 10106 ft | 264 kts | 269° |
| 2026-05-05 15:17 | 52.17936 | 20.64887 | 10334 ft | 263 kts | 265° |
| 2026-05-05 15:18 | 52.17751 | 20.62942 | 10877 ft | 260 kts | 252° |
| 2026-05-05 15:18 | 52.17262 | 20.60101 | 11710 ft | 262 kts | 251° |
| 2026-05-05 15:18 | 52.16543 | 20.56313 | 12819 ft | 264 kts | 250° |
| 2026-05-05 15:18 | 52.16311 | 20.55164 | 13183 ft | 264 kts | 249° |
| 2026-05-05 15:19 | 52.15540 | 20.51403 | 14223 ft | 268 kts | 253° |
| 2026-05-05 15:19 | 52.15387 | 20.49357 | 14677 ft | 273 kts | 269° |
| 2026-05-05 15:19 | 52.15497 | 20.46282 | 15377 ft | 278 kts | 270° |
| 2026-05-05 15:19 | 52.15603 | 20.43076 | 16071 ft | 281 kts | 270° |
| 2026-05-05 15:20 | 52.15717 | 20.39920 | 16767 ft | 285 kts | 271° |
| 2026-05-05 15:20 | 52.15841 | 20.36687 | 17450 ft | 288 kts | 271° |
| 2026-05-05 15:20 | 52.15920 | 20.34643 | 17867 ft | 290 kts | 271° |
| 2026-05-05 15:20 | 52.16051 | 20.31346 | 18460 ft | 294 kts | 271° |
| 2026-05-05 15:21 | 52.16183 | 20.28013 | 19042 ft | 297 kts | 271° |
| 2026-05-05 15:21 | 52.16317 | 20.24641 | 19622 ft | 299 kts | 272° |
| 2026-05-05 15:21 | 52.16452 | 20.21249 | 20199 ft | 301 kts | 272° |
| 2026-05-05 15:21 | 52.16585 | 20.17857 | 20755 ft | 304 kts | 272° |
| 2026-05-05 15:22 | 52.16683 | 20.15345 | 21159 ft | 306 kts | 272° |
| 2026-05-05 15:22 | 52.16817 | 20.11874 | 21711 ft | 309 kts | 272° |
| 2026-05-05 15:22 | 52.16929 | 20.08978 | 22165 ft | 311 kts | 272° |
| 2026-05-05 15:22 | 52.17064 | 20.05450 | 22698 ft | 313 kts | 272° |
| 2026-05-05 15:23 | 52.17199 | 20.01892 | 23239 ft | 316 kts | 272° |
| 2026-05-05 15:23 | 52.17333 | 19.98315 | 23692 ft | 318 kts | 272° |
| 2026-05-05 15:23 | 52.17467 | 19.94732 | 24108 ft | 320 kts | 272° |
| 2026-05-05 15:23 | 52.17584 | 19.91582 | 24475 ft | 322 kts | 272° |
| 2026-05-05 15:24 | 52.17709 | 19.87940 | 24887 ft | 323 kts | 269° |
| 2026-05-05 15:24 | 52.17489 | 19.84409 | 25281 ft | 324 kts | 261° |
| 2026-05-05 15:24 | 52.17183 | 19.80896 | 25643 ft | 327 kts | 262° |
| 2026-05-05 15:24 | 52.16862 | 19.77213 | 26029 ft | 329 kts | 261° |
| 2026-05-05 15:25 | 52.16540 | 19.73570 | 26397 ft | 331 kts | 261° |
| 2026-05-05 15:25 | 52.16321 | 19.71116 | 26687 ft | 331 kts | 261° |
| 2026-05-05 15:25 | 52.16176 | 19.69496 | 26892 ft | 330 kts | 261° |
| 2026-05-05 15:25 | 52.15843 | 19.65795 | 27353 ft | 329 kts | 261° |
| 2026-05-05 15:26 | 52.15516 | 19.62166 | 27798 ft | 328 kts | 261° |
| 2026-05-05 15:26 | 52.15183 | 19.58492 | 28238 ft | 327 kts | 261° |
| 2026-05-05 15:26 | 52.14854 | 19.54878 | 28650 ft | 327 kts | 261° |
| 2026-05-05 15:26 | 52.14517 | 19.51181 | 29067 ft | 326 kts | 261° |
| 2026-05-05 15:27 | 52.14218 | 19.47910 | 29441 ft | 325 kts | 261° |
| 2026-05-05 15:27 | 52.13922 | 19.44689 | 29769 ft | 324 kts | 261° |
| 2026-05-05 15:27 | 52.13587 | 19.41059 | 30091 ft | 324 kts | 261° |
| 2026-05-05 15:27 | 52.13253 | 19.37440 | 30376 ft | 323 kts | 261° |
| 2026-05-05 15:28 | 52.12916 | 19.33809 | 30611 ft | 325 kts | 261° |
| 2026-05-05 15:28 | 52.12577 | 19.30176 | 30885 ft | 324 kts | 261° |
| 2026-05-05 15:28 | 52.12253 | 19.26709 | 31152 ft | 323 kts | 261° |
| 2026-05-05 15:28 | 52.11929 | 19.23264 | 31416 ft | 323 kts | 261° |
| 2026-05-05 15:29 | 52.11642 | 19.20210 | 31648 ft | 322 kts | 261° |
| 2026-05-05 15:29 | 52.11303 | 19.16620 | 31908 ft | 321 kts | 261° |
| 2026-05-05 15:29 | 52.10963 | 19.13038 | 32156 ft | 320 kts | 261° |
| 2026-05-05 15:29 | 52.10622 | 19.09453 | 32403 ft | 320 kts | 261° |
| 2026-05-05 15:30 | 52.10280 | 19.05869 | 32513 ft | 323 kts | 261° |
| 2026-05-05 15:30 | 52.09667 | 18.99464 | 32449 ft | 337 kts | 261° |
| 2026-05-05 15:31 | 52.08928 | 18.91807 | 32479 ft | 352 kts | 261° |
| 2026-05-05 15:31 | 52.08545 | 18.87856 | 32602 ft | 356 kts | 261° |
| 2026-05-05 15:31 | 52.08154 | 18.83837 | 32598 ft | 364 kts | 261° |
| 2026-05-05 15:32 | 52.07450 | 18.76637 | 32600 ft | 378 kts | 261° |
| 2026-05-05 15:32 | 52.06598 | 18.67989 | 32601 ft | 394 kts | 261° |
| 2026-05-05 15:33 | 52.05713 | 18.59081 | 32602 ft | 410 kts | 261° |
| 2026-05-05 15:33 | 52.04801 | 18.49971 | 32961 ft | 416 kts | 261° |
| 2026-05-05 15:33 | 52.04334 | 18.45332 | 33335 ft | 416 kts | 261° |
| 2026-05-05 15:34 | 52.03867 | 18.40709 | 33766 ft | 413 kts | 261° |
| 2026-05-05 15:34 | 52.03433 | 18.36439 | 34179 ft | 409 kts | 261° |
| 2026-05-05 15:34 | 52.02969 | 18.31887 | 34517 ft | 408 kts | 261° |
| 2026-05-05 15:34 | 52.02505 | 18.27358 | 34759 ft | 409 kts | 261° |
| 2026-05-05 15:35 | 52.02036 | 18.22792 | 35002 ft | 409 kts | 261° |
| 2026-05-05 15:35 | 52.01566 | 18.18234 | 35244 ft | 410 kts | 261° |
| 2026-05-05 15:35 | 52.01094 | 18.13673 | 35485 ft | 410 kts | 260° |
| 2026-05-05 15:35 | 52.00626 | 18.09157 | 35721 ft | 410 kts | 260° |
| 2026-05-05 15:36 | 52.00159 | 18.04667 | 35951 ft | 410 kts | 260° |
| 2026-05-05 15:36 | 51.99910 | 18.00112 | 36162 ft | 411 kts | 273° |
| 2026-05-05 15:36 | 52.00356 | 17.95580 | 36414 ft | 411 kts | 278° |
| 2026-05-05 15:36 | 52.00872 | 17.91052 | 36519 ft | 413 kts | 279° |
| 2026-05-05 15:37 | 52.01405 | 17.86562 | 36764 ft | 413 kts | 279° |
| 2026-05-05 15:37 | 52.01959 | 17.82022 | 37013 ft | 413 kts | 279° |
| 2026-05-05 15:37 | 52.02526 | 17.77455 | 37191 ft | 413 kts | 279° |
| 2026-05-05 15:37 | 52.03097 | 17.72883 | 37370 ft | 414 kts | 279° |
| 2026-05-05 15:38 | 52.03669 | 17.68299 | 37557 ft | 414 kts | 279° |
| 2026-05-05 15:38 | 52.04067 | 17.65097 | 37673 ft | 414 kts | 279° |
| 2026-05-05 15:38 | 52.04637 | 17.60511 | 37805 ft | 415 kts | 279° |
| 2026-05-05 15:39 | 52.05776 | 17.51300 | 37805 ft | 414 kts | 279° |
| 2026-05-05 15:39 | 52.06825 | 17.42761 | 37809 ft | 414 kts | 279° |
| 2026-05-05 15:40 | 52.07815 | 17.34648 | 37810 ft | 413 kts | 279° |
| 2026-05-05 15:40 | 52.08910 | 17.25622 | 37816 ft | 413 kts | 279° |
| 2026-05-05 15:41 | 52.10015 | 17.16449 | 37817 ft | 413 kts | 279° |
| 2026-05-05 15:41 | 52.11059 | 17.07711 | 37816 ft | 413 kts | 279° |
| 2026-05-05 15:42 | 52.12142 | 16.98607 | 37819 ft | 413 kts | 279° |
| 2026-05-05 15:42 | 52.13078 | 16.90680 | 37831 ft | 412 kts | 278° |
| 2026-05-05 15:43 | 52.14003 | 16.82800 | 37829 ft | 411 kts | 278° |
| 2026-05-05 15:43 | 52.15069 | 16.73650 | 37832 ft | 411 kts | 278° |
| 2026-05-05 15:44 | 52.16102 | 16.64728 | 37832 ft | 411 kts | 278° |
| 2026-05-05 15:44 | 52.16920 | 16.57618 | 37830 ft | 411 kts | 278° |
| 2026-05-05 15:45 | 52.17971 | 16.48419 | 37832 ft | 411 kts | 278° |
| 2026-05-05 15:45 | 52.18763 | 16.41441 | 37832 ft | 410 kts | 278° |
| 2026-05-05 15:46 | 52.19713 | 16.33029 | 37829 ft | 410 kts | 278° |
| 2026-05-05 15:46 | 52.20494 | 16.26063 | 37829 ft | 410 kts | 278° |
| 2026-05-05 15:47 | 52.21437 | 16.17604 | 37833 ft | 410 kts | 278° |
| 2026-05-05 15:47 | 52.22450 | 16.08452 | 37832 ft | 410 kts | 278° |
| 2026-05-05 15:48 | 52.23427 | 15.99555 | 37831 ft | 410 kts | 278° |
| 2026-05-05 15:48 | 52.24416 | 15.90495 | 37849 ft | 409 kts | 277° |
| 2026-05-05 15:49 | 52.25405 | 15.81354 | 37857 ft | 409 kts | 277° |
| 2026-05-05 15:49 | 52.26385 | 15.72227 | 37850 ft | 409 kts | 277° |
| 2026-05-05 15:50 | 52.27357 | 15.63112 | 37847 ft | 409 kts | 277° |
| 2026-05-05 15:50 | 52.28320 | 15.54008 | 37846 ft | 409 kts | 277° |
| 2026-05-05 15:51 | 52.29279 | 15.44873 | 37848 ft | 408 kts | 277° |
| 2026-05-05 15:51 | 52.30200 | 15.36031 | 37839 ft | 407 kts | 277° |
| 2026-05-05 15:52 | 52.31143 | 15.26904 | 37835 ft | 407 kts | 277° |
| 2026-05-05 15:52 | 52.31820 | 15.20313 | 37836 ft | 407 kts | 277° |
| 2026-05-05 15:53 | 52.32749 | 15.11203 | 37830 ft | 407 kts | 277° |
| 2026-05-05 15:53 | 52.33667 | 15.02133 | 37832 ft | 407 kts | 277° |
| 2026-05-05 15:54 | 52.34568 | 14.93148 | 37832 ft | 406 kts | 277° |
| 2026-05-05 15:54 | 52.35478 | 14.84034 | 37837 ft | 406 kts | 277° |
| 2026-05-05 15:55 | 52.36363 | 14.75101 | 37835 ft | 406 kts | 277° |
| 2026-05-05 15:55 | 52.37261 | 14.65971 | 37835 ft | 406 kts | 276° |
| 2026-05-05 15:56 | 52.37986 | 14.57123 | 37824 ft | 403 kts | 269° |
| 2026-05-05 15:56 | 52.38085 | 14.48095 | 37826 ft | 404 kts | 269° |
| 2026-05-05 15:57 | 52.38184 | 14.39031 | 37840 ft | 404 kts | 269° |
| 2026-05-05 15:57 | 52.38273 | 14.29842 | 37824 ft | 404 kts | 269° |
| 2026-05-05 15:58 | 52.38354 | 14.20673 | 37835 ft | 402 kts | 269° |
| 2026-05-05 15:58 | 52.38429 | 14.11526 | 37834 ft | 402 kts | 269° |
| 2026-05-05 15:59 | 52.38495 | 14.02502 | 37847 ft | 402 kts | 269° |
| 2026-05-05 15:59 | 52.38555 | 13.93353 | 37845 ft | 402 kts | 268° |
| 2026-05-05 16:00 | 52.38608 | 13.84246 | 37851 ft | 403 kts | 268° |
| 2026-05-05 16:00 | 52.38654 | 13.75070 | 37854 ft | 402 kts | 268° |
| 2026-05-05 16:01 | 52.38693 | 13.65909 | 37858 ft | 402 kts | 268° |
| 2026-05-05 16:01 | 52.38725 | 13.56786 | 37856 ft | 403 kts | 268° |
| 2026-05-05 16:02 | 52.38750 | 13.47596 | 37864 ft | 403 kts | 268° |
| 2026-05-05 16:02 | 52.38768 | 13.38413 | 37858 ft | 403 kts | 268° |
| 2026-05-05 16:03 | 52.38778 | 13.29275 | 37853 ft | 403 kts | 268° |
| 2026-05-05 16:03 | 52.38782 | 13.20090 | 37853 ft | 403 kts | 268° |
| 2026-05-05 16:04 | 52.38778 | 13.10901 | 37847 ft | 403 kts | 268° |
| 2026-05-05 16:04 | 52.38767 | 13.01712 | 37845 ft | 403 kts | 268° |
| 2026-05-05 16:05 | 52.38750 | 12.92535 | 37847 ft | 403 kts | 268° |
| 2026-05-05 16:05 | 52.38725 | 12.83371 | 37848 ft | 403 kts | 268° |
| 2026-05-05 16:06 | 52.38693 | 12.74204 | 37844 ft | 403 kts | 268° |
| 2026-05-05 16:06 | 52.38661 | 12.66579 | 37853 ft | 403 kts | 267° |
| 2026-05-05 16:07 | 52.38608 | 12.55906 | 37857 ft | 403 kts | 267° |
| 2026-05-05 16:07 | 52.38564 | 12.48220 | 37862 ft | 403 kts | 267° |
| 2026-05-05 16:08 | 52.38505 | 12.39114 | 37847 ft | 403 kts | 267° |
| 2026-05-05 16:08 | 52.38439 | 12.29948 | 37859 ft | 403 kts | 267° |
| 2026-05-05 16:09 | 52.38365 | 12.20726 | 37859 ft | 403 kts | 267° |
| 2026-05-05 16:09 | 52.38285 | 12.11608 | 37834 ft | 403 kts | 266° |
| 2026-05-05 16:10 | 52.38198 | 12.02425 | 37860 ft | 404 kts | 266° |
| 2026-05-05 16:10 | 52.38103 | 11.93231 | 37868 ft | 404 kts | 266° |
| 2026-05-05 16:11 | 52.38001 | 11.84048 | 37863 ft | 404 kts | 266° |
| 2026-05-05 16:12 | 52.37776 | 11.65664 | 37861 ft | 404 kts | 266° |
| 2026-05-05 16:13 | 52.37454 | 11.42717 | 37866 ft | 404 kts | 266° |
| 2026-05-05 16:13 | 52.37314 | 11.33570 | 37868 ft | 405 kts | 266° |
| 2026-05-05 16:14 | 52.37010 | 11.15126 | 37871 ft | 405 kts | 266° |
| 2026-05-05 16:15 | 52.36683 | 10.96698 | 37868 ft | 405 kts | 265° |
| 2026-05-05 16:16 | 52.36284 | 10.78299 | 37858 ft | 405 kts | 264° |
| 2026-05-05 16:17 | 52.35772 | 10.64478 | 37854 ft | 405 kts | 264° |
| 2026-05-05 16:18 | 52.35267 | 10.50659 | 37856 ft | 405 kts | 264° |
| 2026-05-05 16:19 | 52.34748 | 10.36900 | 37860 ft | 407 kts | 264° |
| 2026-05-05 16:19 | 52.34211 | 10.23040 | 37867 ft | 407 kts | 264° |
| 2026-05-05 16:20 | 52.33467 | 10.04547 | 37851 ft | 407 kts | 263° |
| 2026-05-05 16:22 | 52.32496 | 9.81408 | 37880 ft | 410 kts | 263° |
| 2026-05-05 16:23 | 52.31682 | 9.62809 | 37881 ft | 410 kts | 263° |
| 2026-05-05 16:23 | 52.31052 | 9.48842 | 37875 ft | 410 kts | 263° |
| 2026-05-05 16:24 | 52.30624 | 9.39560 | 37877 ft | 410 kts | 263° |
| 2026-05-05 16:25 | 52.29971 | 9.25703 | 37857 ft | 410 kts | 263° |
| 2026-05-05 16:25 | 52.29297 | 9.11770 | 37858 ft | 410 kts | 263° |
| 2026-05-05 16:26 | 52.28374 | 8.93184 | 37858 ft | 410 kts | 263° |
| 2026-05-05 16:27 | 52.27900 | 8.83884 | 37862 ft | 412 kts | 263° |
| 2026-05-05 16:27 | 52.27418 | 8.74558 | 37857 ft | 412 kts | 263° |
| 2026-05-05 16:28 | 52.26929 | 8.65246 | 37859 ft | 412 kts | 263° |
| 2026-05-05 16:28 | 52.26436 | 8.55980 | 37869 ft | 412 kts | 262° |
| 2026-05-05 16:29 | 52.25932 | 8.46659 | 37865 ft | 412 kts | 262° |
| 2026-05-05 16:29 | 52.25423 | 8.37396 | 37860 ft | 413 kts | 262° |
| 2026-05-05 16:30 | 52.24902 | 8.28033 | 37874 ft | 414 kts | 262° |
| 2026-05-05 16:30 | 52.24374 | 8.18690 | 37866 ft | 413 kts | 262° |
| 2026-05-05 16:31 | 52.23838 | 8.09339 | 37866 ft | 414 kts | 262° |
| 2026-05-05 16:31 | 52.23294 | 7.99975 | 37865 ft | 414 kts | 262° |
| 2026-05-05 16:32 | 52.22743 | 7.90622 | 37879 ft | 414 kts | 262° |
| 2026-05-05 16:32 | 52.22184 | 7.81252 | 37858 ft | 415 kts | 262° |
| 2026-05-05 16:33 | 52.21617 | 7.71883 | 37851 ft | 415 kts | 262° |
| 2026-05-05 16:33 | 52.21046 | 7.62568 | 37855 ft | 415 kts | 262° |
| 2026-05-05 16:34 | 52.20465 | 7.53209 | 37860 ft | 415 kts | 262° |
| 2026-05-05 16:34 | 52.19875 | 7.43833 | 37870 ft | 415 kts | 262° |
| 2026-05-05 16:35 | 52.19278 | 7.34466 | 37874 ft | 417 kts | 262° |
| 2026-05-05 16:35 | 52.18670 | 7.25054 | 37869 ft | 417 kts | 261° |
| 2026-05-05 16:36 | 52.18055 | 7.15645 | 37874 ft | 417 kts | 261° |
| 2026-05-05 16:36 | 52.17436 | 7.06301 | 37879 ft | 417 kts | 261° |
| 2026-05-05 16:37 | 52.16808 | 6.96919 | 37875 ft | 417 kts | 261° |
| 2026-05-05 16:37 | 52.16171 | 6.87518 | 37896 ft | 418 kts | 261° |
| 2026-05-05 16:38 | 52.15521 | 6.78050 | 37893 ft | 421 kts | 261° |
| 2026-05-05 16:38 | 52.14863 | 6.68575 | 37889 ft | 421 kts | 261° |
| 2026-05-05 16:39 | 52.14197 | 6.59092 | 37881 ft | 421 kts | 261° |
| 2026-05-05 16:39 | 52.13528 | 6.49677 | 37889 ft | 421 kts | 261° |
| 2026-05-05 16:40 | 52.12847 | 6.40216 | 37891 ft | 421 kts | 261° |
| 2026-05-05 16:40 | 52.12156 | 6.30702 | 37895 ft | 425 kts | 261° |
| 2026-05-05 16:41 | 52.11452 | 6.21140 | 37886 ft | 425 kts | 261° |
| 2026-05-05 16:41 | 52.10742 | 6.11589 | 37880 ft | 425 kts | 261° |
| 2026-05-05 16:42 | 52.10024 | 6.02039 | 37885 ft | 425 kts | 261° |
| 2026-05-05 16:42 | 52.09297 | 5.92483 | 37885 ft | 425 kts | 261° |
| 2026-05-05 16:43 | 52.08561 | 5.82914 | 37883 ft | 427 kts | 261° |
| 2026-05-05 16:43 | 52.07816 | 5.73322 | 37885 ft | 428 kts | 261° |
| 2026-05-05 16:44 | 52.07068 | 5.63798 | 37885 ft | 428 kts | 261° |
| 2026-05-05 16:44 | 52.06306 | 5.54211 | 37884 ft | 428 kts | 261° |
| 2026-05-05 16:45 | 52.05537 | 5.44621 | 37883 ft | 428 kts | 261° |
| 2026-05-05 16:45 | 52.04760 | 5.35037 | 37889 ft | 428 kts | 261° |
| 2026-05-05 16:46 | 52.03983 | 5.25550 | 37886 ft | 429 kts | 261° |
| 2026-05-05 16:46 | 52.03186 | 5.15920 | 37890 ft | 429 kts | 260° |
| 2026-05-05 16:47 | 52.02383 | 5.06316 | 37886 ft | 429 kts | 260° |
| 2026-05-05 16:47 | 52.01573 | 4.96711 | 37889 ft | 429 kts | 260° |
| 2026-05-05 16:48 | 52.00754 | 4.87119 | 37913 ft | 430 kts | 260° |
| 2026-05-05 16:48 | 51.99928 | 4.77517 | 37902 ft | 432 kts | 260° |
| 2026-05-05 16:49 | 51.99088 | 4.67869 | 37905 ft | 432 kts | 260° |
| 2026-05-05 16:49 | 51.98240 | 4.58208 | 37908 ft | 432 kts | 260° |
| 2026-05-05 16:50 | 51.97385 | 4.48559 | 37911 ft | 432 kts | 259° |
| 2026-05-05 16:50 | 51.96587 | 4.39638 | 37914 ft | 432 kts | 259° |
| 2026-05-05 16:51 | 51.95715 | 4.29992 | 37909 ft | 433 kts | 259° |
| 2026-05-05 16:51 | 51.94834 | 4.20326 | 37905 ft | 433 kts | 259° |
| 2026-05-05 16:52 | 51.93945 | 4.10666 | 37904 ft | 433 kts | 259° |
| 2026-05-05 16:52 | 51.93049 | 4.01018 | 37905 ft | 433 kts | 259° |
| 2026-05-05 16:53 | 51.92152 | 3.91433 | 37891 ft | 433 kts | 259° |
| 2026-05-05 16:53 | 51.91243 | 3.81794 | 37896 ft | 432 kts | 259° |
| 2026-05-05 16:54 | 51.90330 | 3.72189 | 37893 ft | 431 kts | 259° |
| 2026-05-05 16:54 | 51.89408 | 3.62569 | 37906 ft | 433 kts | 258° |
| 2026-05-05 16:55 | 51.88638 | 3.54591 | 37893 ft | 431 kts | 258° |
| 2026-05-05 16:55 | 51.87703 | 3.44990 | 37915 ft | 432 kts | 258° |
| 2026-05-05 16:56 | 51.86762 | 3.35407 | 37909 ft | 431 kts | 258° |
| 2026-05-05 16:56 | 51.85812 | 3.25805 | 37919 ft | 433 kts | 258° |
| 2026-05-05 16:57 | 51.84929 | 3.16207 | 37919 ft | 432 kts | 262° |
| 2026-05-05 16:57 | 51.84306 | 3.06495 | 37919 ft | 433 kts | 261° |
| 2026-05-05 16:58 | 51.83656 | 2.96827 | 37918 ft | 432 kts | 261° |
| 2026-05-05 16:58 | 51.83002 | 2.87210 | 37780 ft | 430 kts | 261° |
| 2026-05-05 16:59 | 51.82674 | 2.82439 | 37285 ft | 425 kts | 261° |
| 2026-05-05 16:59 | 51.82347 | 2.77703 | 36787 ft | 421 kts | 261° |
| 2026-05-05 16:59 | 51.82022 | 2.73029 | 36304 ft | 417 kts | 261° |
| 2026-05-05 16:59 | 51.81699 | 2.68387 | 35819 ft | 414 kts | 261° |
| 2026-05-05 17:00 | 51.81381 | 2.63768 | 35277 ft | 413 kts | 261° |
| 2026-05-05 17:00 | 51.81064 | 2.59159 | 34754 ft | 411 kts | 260° |
| 2026-05-05 17:00 | 51.80747 | 2.54587 | 34299 ft | 408 kts | 260° |
| 2026-05-05 17:00 | 51.80429 | 2.50029 | 33827 ft | 406 kts | 260° |
| 2026-05-05 17:01 | 51.80114 | 2.45518 | 33279 ft | 403 kts | 260° |
| 2026-05-05 17:01 | 51.79797 | 2.41027 | 32793 ft | 400 kts | 261° |
| 2026-05-05 17:01 | 51.79482 | 2.36578 | 32327 ft | 397 kts | 261° |
| 2026-05-05 17:01 | 51.79171 | 2.32220 | 31887 ft | 394 kts | 261° |
| 2026-05-05 17:02 | 51.78857 | 2.27837 | 31441 ft | 391 kts | 261° |
| 2026-05-05 17:02 | 51.78548 | 2.23496 | 30982 ft | 388 kts | 262° |
| 2026-05-05 17:02 | 51.78298 | 2.19164 | 30498 ft | 387 kts | 262° |
| 2026-05-05 17:02 | 51.78048 | 2.14830 | 30067 ft | 384 kts | 262° |
| 2026-05-05 17:03 | 51.77796 | 2.10539 | 29590 ft | 382 kts | 262° |
| 2026-05-05 17:03 | 51.77542 | 2.06282 | 29147 ft | 378 kts | 261° |
| 2026-05-05 17:03 | 51.77291 | 2.02085 | 28740 ft | 374 kts | 262° |
| 2026-05-05 17:03 | 51.77043 | 1.97972 | 28344 ft | 370 kts | 262° |
| 2026-05-05 17:04 | 51.76793 | 1.93859 | 27964 ft | 367 kts | 262° |
| 2026-05-05 17:04 | 51.76544 | 1.89779 | 27571 ft | 363 kts | 262° |
| 2026-05-05 17:04 | 51.76296 | 1.85725 | 27180 ft | 360 kts | 262° |
| 2026-05-05 17:04 | 51.76048 | 1.81721 | 26799 ft | 357 kts | 262° |
| 2026-05-05 17:05 | 51.75802 | 1.77754 | 26420 ft | 354 kts | 262° |
| 2026-05-05 17:05 | 51.75556 | 1.73808 | 26054 ft | 352 kts | 263° |
| 2026-05-05 17:05 | 51.75310 | 1.69889 | 25690 ft | 349 kts | 262° |
| 2026-05-05 17:05 | 51.75065 | 1.66002 | 25333 ft | 346 kts | 262° |
| 2026-05-05 17:06 | 51.74821 | 1.62151 | 24973 ft | 344 kts | 262° |
| 2026-05-05 17:06 | 51.74576 | 1.58298 | 24438 ft | 348 kts | 263° |
| 2026-05-05 17:06 | 51.74331 | 1.54443 | 23925 ft | 351 kts | 263° |
| 2026-05-05 17:06 | 51.74080 | 1.50513 | 23424 ft | 353 kts | 263° |
| 2026-05-05 17:07 | 51.73825 | 1.46551 | 22822 ft | 355 kts | 263° |
| 2026-05-05 17:07 | 51.73568 | 1.42580 | 22259 ft | 357 kts | 264° |
| 2026-05-05 17:07 | 51.73309 | 1.38589 | 21728 ft | 358 kts | 264° |
| 2026-05-05 17:07 | 51.73048 | 1.34585 | 21205 ft | 360 kts | 264° |
| 2026-05-05 17:08 | 51.72783 | 1.30565 | 20673 ft | 361 kts | 264° |
| 2026-05-05 17:08 | 51.72516 | 1.26519 | 20135 ft | 363 kts | 264° |
| 2026-05-05 17:08 | 51.72246 | 1.22453 | 19588 ft | 366 kts | 264° |
| 2026-05-05 17:08 | 51.71973 | 1.18359 | 19043 ft | 368 kts | 263° |
| 2026-05-05 17:09 | 51.71696 | 1.14238 | 18497 ft | 371 kts | 264° |
| 2026-05-05 17:09 | 51.71416 | 1.10091 | 17897 ft | 373 kts | 264° |
| 2026-05-05 17:09 | 51.71133 | 1.05916 | 17301 ft | 375 kts | 264° |
| 2026-05-05 17:09 | 51.70849 | 1.01739 | 16739 ft | 375 kts | 264° |
| 2026-05-05 17:10 | 51.70563 | 0.97556 | 16183 ft | 376 kts | 264° |
| 2026-05-05 17:10 | 51.70275 | 0.93380 | 15670 ft | 375 kts | 264° |
| 2026-05-05 17:10 | 51.69986 | 0.89219 | 15230 ft | 372 kts | 264° |
| 2026-05-05 17:10 | 51.69697 | 0.85079 | 14779 ft | 370 kts | 264° |
| 2026-05-05 17:11 | 51.69429 | 0.81244 | 14381 ft | 367 kts | 264° |
| 2026-05-05 17:11 | 51.69146 | 0.77223 | 13946 ft | 365 kts | 264° |
| 2026-05-05 17:11 | 51.68860 | 0.73175 | 13470 ft | 363 kts | 264° |
| 2026-05-05 17:11 | 51.68573 | 0.69137 | 12978 ft | 361 kts | 264° |
| 2026-05-05 17:12 | 51.68286 | 0.65123 | 12471 ft | 360 kts | 264° |
| 2026-05-05 17:12 | 51.68000 | 0.61129 | 12044 ft | 357 kts | 264° |
| 2026-05-05 17:12 | 51.67720 | 0.57236 | 11635 ft | 353 kts | 264° |
| 2026-05-05 17:12 | 51.67446 | 0.53453 | 11220 ft | 350 kts | 264° |
| 2026-05-05 17:13 | 51.67163 | 0.49564 | 10778 ft | 348 kts | 264° |
| 2026-05-05 17:13 | 51.66884 | 0.45753 | 10316 ft | 337 kts | 265° |
| 2026-05-05 17:13 | 51.66614 | 0.42086 | 9986 ft | 321 kts | 265° |
| 2026-05-05 17:13 | 51.66360 | 0.38647 | 9971 ft | 297 kts | 264° |
| 2026-05-05 17:14 | 51.66127 | 0.35502 | 9970 ft | 279 kts | 265° |
| 2026-05-05 17:14 | 51.65900 | 0.32428 | 9670 ft | 277 kts | 264° |
| 2026-05-05 17:14 | 51.65668 | 0.29315 | 9039 ft | 282 kts | 264° |
| 2026-05-05 17:14 | 51.65440 | 0.26284 | 8437 ft | 286 kts | 265° |
| 2026-05-05 17:15 | 51.65198 | 0.23049 | 7847 ft | 289 kts | 265° |
| 2026-05-05 17:15 | 51.64956 | 0.19839 | 7407 ft | 287 kts | 265° |
| 2026-05-05 17:15 | 51.64719 | 0.16699 | 7051 ft | 279 kts | 265° |
| 2026-05-05 17:15 | 51.64531 | 0.13721 | 6969 ft | 259 kts | 267° |
| 2026-05-05 17:16 | 51.64385 | 0.10948 | 6966 ft | 243 kts | 268° |
| 2026-05-05 17:16 | 51.64239 | 0.08230 | 6971 ft | 243 kts | 267° |
| 2026-05-05 17:16 | 51.64097 | 0.05637 | 6946 ft | 242 kts | 267° |
| 2026-05-05 17:16 | 51.63954 | 0.03053 | 6948 ft | 242 kts | 267° |
| 2026-05-05 17:17 | 51.63804 | 0.00355 | 6960 ft | 242 kts | 267° |
| 2026-05-05 17:17 | 51.63653 | -0.02345 | 6991 ft | 243 kts | 267° |
| 2026-05-05 17:17 | 51.63542 | -0.04313 | 6976 ft | 242 kts | 266° |
| 2026-05-05 17:17 | 51.63385 | -0.07105 | 6992 ft | 243 kts | 266° |
| 2026-05-05 17:18 | 51.63231 | -0.09814 | 7009 ft | 243 kts | 266° |
| 2026-05-05 17:18 | 51.63077 | -0.12515 | 7009 ft | 243 kts | 267° |
| 2026-05-05 17:18 | 51.62922 | -0.15223 | 7015 ft | 243 kts | 266° |
| 2026-05-05 17:18 | 51.62773 | -0.17809 | 7013 ft | 243 kts | 266° |
| 2026-05-05 17:19 | 51.62627 | -0.20339 | 7011 ft | 243 kts | 266° |
| 2026-05-05 17:19 | 51.62468 | -0.23092 | 7022 ft | 243 kts | 267° |
| 2026-05-05 17:19 | 51.62314 | -0.25750 | 7033 ft | 243 kts | 267° |
| 2026-05-05 17:19 | 51.62158 | -0.28411 | 7030 ft | 243 kts | 266° |
| 2026-05-05 17:20 | 51.61999 | -0.31131 | 7026 ft | 243 kts | 266° |
| 2026-05-05 17:20 | 51.61839 | -0.33837 | 6924 ft | 243 kts | 266° |
| 2026-05-05 17:20 | 51.61680 | -0.36538 | 6931 ft | 243 kts | 266° |
| 2026-05-05 17:20 | 51.61519 | -0.39242 | 6934 ft | 243 kts | 266° |
| 2026-05-05 17:21 | 51.61358 | -0.41943 | 6945 ft | 243 kts | 266° |
| 2026-05-05 17:21 | 51.61210 | -0.44437 | 6934 ft | 243 kts | 266° |
| 2026-05-05 17:21 | 51.61048 | -0.47151 | 6934 ft | 243 kts | 266° |
| 2026-05-05 17:22 | 51.60721 | -0.52567 | 6945 ft | 243 kts | 266° |
| 2026-05-05 17:22 | 51.60556 | -0.55275 | 6937 ft | 243 kts | 266° |
| 2026-05-05 17:22 | 51.60391 | -0.57991 | 6942 ft | 243 kts | 266° |
| 2026-05-05 17:22 | 51.60226 | -0.60690 | 6939 ft | 243 kts | 266° |
| 2026-05-05 17:23 | 51.60063 | -0.63354 | 6941 ft | 242 kts | 266° |
| 2026-05-05 17:23 | 51.59899 | -0.66029 | 6852 ft | 244 kts | 266° |
| 2026-05-05 17:23 | 51.59746 | -0.68512 | 6639 ft | 244 kts | 266° |
| 2026-05-05 17:23 | 51.59577 | -0.71231 | 6397 ft | 243 kts | 266° |
| 2026-05-05 17:24 | 51.59410 | -0.73922 | 6145 ft | 240 kts | 266° |
| 2026-05-05 17:24 | 51.59148 | -0.76553 | 5852 ft | 241 kts | 251° |
| 2026-05-05 17:24 | 51.58222 | -0.78807 | 5499 ft | 244 kts | 222° |
| 2026-05-05 17:24 | 51.56761 | -0.80059 | 5174 ft | 238 kts | 193° |
| 2026-05-05 17:25 | 51.55139 | -0.80113 | 4778 ft | 233 kts | 166° |
| 2026-05-05 17:25 | 51.54104 | -0.79643 | 4508 ft | 232 kts | 162° |
| 2026-05-05 17:25 | 51.51958 | -0.79286 | 3941 ft | 233 kts | 178° |
| 2026-05-05 17:25 | 51.50340 | -0.79209 | 3548 ft | 231 kts | 173° |
| 2026-05-05 17:26 | 51.48925 | -0.78357 | 3500 ft | 208 kts | 139° |
| 2026-05-05 17:26 | 51.48100 | -0.76674 | 3477 ft | 197 kts | 111° |
| 2026-05-05 17:26 | 51.47782 | -0.74571 | 3456 ft | 195 kts | 94° |
| 2026-05-05 17:26 | 51.47630 | -0.72399 | 3130 ft | 198 kts | 91° |
| 2026-05-05 17:27 | 51.47587 | -0.70194 | 2832 ft | 195 kts | 87° |
| 2026-05-05 17:27 | 51.47599 | -0.68056 | 2540 ft | 188 kts | 86° |
| 2026-05-05 17:27 | 51.47615 | -0.66052 | 2280 ft | 170 kts | 86° |
| 2026-05-05 17:27 | 51.47626 | -0.64251 | 2047 ft | 154 kts | 86° |
| 2026-05-05 17:28 | 51.47639 | -0.62588 | 1864 ft | 149 kts | 86° |
| 2026-05-05 17:28 | 51.47651 | -0.60923 | 1673 ft | 148 kts | 87° |
| 2026-05-05 17:28 | 51.47662 | -0.59282 | 1457 ft | 146 kts | 86° |
| 2026-05-05 17:28 | 51.47672 | -0.57683 | 1277 ft | 142 kts | 86° |
| 2026-05-05 17:29 | 51.47682 | -0.56098 | 1048 ft | 143 kts | 86° |
| 2026-05-05 17:29 | 51.47693 | -0.54515 | 825 ft | 142 kts | 85° |
| 2026-05-05 17:29 | 51.47732 | -0.52904 | 667 ft | 145 kts | 85° |
| 2026-05-05 17:29 | 51.47743 | -0.51313 | 471 ft | 143 kts | 88° |
| 2026-05-05 17:30 | 51.47736 | -0.49772 | 278 ft | 141 kts | 88° |
| 2026-05-05 17:30 | 51.47758 | -0.48211 | 114 ft | 138 kts | 90° |
| 2026-05-05 17:30 | 51.47757 | -0.46860 | 93 ft | 90 kts | 90° |
| 2026-05-05 17:30 | 51.47759 | -0.46276 | 91 ft | 17 kts | 93° |
| 2026-05-05 17:31 | 51.47693 | -0.46133 | 90 ft | 6 kts | 145° |
| 2026-05-05 17:31 | 51.47682 | -0.46120 | 89 ft | 2 kts | 145° |
| 2026-05-05 17:31 | 51.47648 | -0.46083 | 90 ft | 12 kts | 145° |
| 2026-05-05 17:31 | 51.47595 | -0.45954 | 92 ft | 16 kts | 94° |
| 2026-05-05 17:32 | 51.47596 | -0.45763 | 90 ft | 18 kts | 89° |
| 2026-05-05 17:32 | 51.47596 | -0.45550 | 92 ft | 16 kts | 90° |
| 2026-05-05 17:32 | 51.47595 | -0.45357 | 92 ft | 18 kts | 90° |
| 2026-05-05 17:32 | 51.47597 | -0.45177 | 90 ft | 11 kts | 87° |
| 2026-05-05 17:33 | 51.47598 | -0.45036 | 89 ft | 14 kts | 90° |
| 2026-05-05 17:33 | 51.47598 | -0.44870 | 89 ft | 16 kts | 90° |
| 2026-05-05 17:33 | 51.47599 | -0.44714 | 89 ft | 7 kts | 93° |
| 2026-05-05 17:33 | 51.47559 | -0.44660 | 89 ft | 9 kts | 174° |
| 2026-05-05 17:34 | 51.47503 | -0.44604 | 89 ft | 11 kts | 118° |
| 2026-05-05 17:34 | 51.47429 | -0.44560 | 89 ft | 13 kts | 180° |
| 2026-05-05 17:34 | 51.47329 | -0.44559 | 89 ft | 16 kts | 180° |
| 2026-05-05 17:34 | 51.47214 | -0.44558 | 89 ft | 17 kts | 179° |
| 2026-05-05 17:35 | 51.47094 | -0.44557 | 89 ft | 14 kts | 179° |
| 2026-05-05 17:35 | 51.47040 | -0.44570 | 92 ft | 4 kts | 228° |
| 2026-05-05 17:35 | 51.47037 | -0.44620 | 89 ft | 4 kts | 271° |
| 2026-05-05 17:35 | 51.47037 | -0.44666 | 89 ft | 1 kts | 270° |